Itapetinga, Brazil
Current Conditions -  °F | °C
As of 12:40 AM on Tuesday 23 Dec 2014 (Local Time) from SBQV Reporting Station
Few Clouds Few Clouds  
Wind Chill: 68°   Ceiling: Unl
Heat Index: 68°   Visibility: 6mi
Dew Point: 68°   Wind: 7mph
Humidity: 100%   Direction: 130°SE
Pressure: 30.06"   Gusts: NA
Location:  15.25°S, 40.25°W
Report Text: SBQV 230340Z 13006KT 9999 FEW010 20/20 Q1018
Loading
Personal Weather Stations






























Interactive Weather Map New forecast layout! Learn more

10-Day Weather Forecast

Advertisements
Track Severe Weather on mobile